createdAt,value
2018-12-18T00:00:13.951Z,100.00
2018-12-18T00:02:46.261Z,100.00
2018-12-18T00:05:21.296Z,100.00
2018-12-18T00:07:51.625Z,100.00
2018-12-18T00:10:21.700Z,100.00
2018-12-18T00:12:51.903Z,100.00
2018-12-18T00:15:22.870Z,100.00
2018-12-18T00:17:54.265Z,100.00
2018-12-18T00:20:24.285Z,100.00
2018-12-18T00:22:55.298Z,100.00
2018-12-18T00:25:25.528Z,100.00
2018-12-18T00:27:56.860Z,100.00
2018-12-18T00:30:27.047Z,100.00
2018-12-18T00:32:57.038Z,100.00
2018-12-18T00:35:27.513Z,100.00
2018-12-18T00:37:58.299Z,100.00
2018-12-18T00:40:29.642Z,100.00
2018-12-18T00:42:59.723Z,100.00
2018-12-18T00:45:29.954Z,100.00
2018-12-18T00:47:59.898Z,100.00
2018-12-18T00:50:31.383Z,100.00
2018-12-18T00:53:01.654Z,100.00
2018-12-18T00:55:31.744Z,100.00
2018-12-18T00:58:01.623Z,100.00
2018-12-18T01:00:32.013Z,100.00
2018-12-18T01:03:02.095Z,100.00
2018-12-18T01:05:32.383Z,100.00
2018-12-18T01:08:02.408Z,100.00
2018-12-18T01:10:32.608Z,100.00
2018-12-18T01:13:03.363Z,100.00
2018-12-18T01:15:33.399Z,100.00
2018-12-18T01:18:03.516Z,100.00
2018-12-18T01:20:33.627Z,100.00
2018-12-18T01:23:04.041Z,100.00
2018-12-18T01:25:34.415Z,100.00
2018-12-18T01:28:04.551Z,100.00
2018-12-18T01:30:34.916Z,100.00
2018-12-18T01:33:05.702Z,100.00
2018-12-18T01:35:35.916Z,100.00
2018-12-18T01:38:06.301Z,100.00
2018-12-18T01:40:36.269Z,100.00
2018-12-18T01:43:06.315Z,100.00
2018-12-18T01:45:36.504Z,100.00
2018-12-18T01:48:06.561Z,100.00
2018-12-18T01:50:36.701Z,100.00
2018-12-18T01:53:06.762Z,100.00
2018-12-18T01:55:36.822Z,100.00
2018-12-18T01:58:07.425Z,100.00
2018-12-18T02:00:38.179Z,100.00
2018-12-18T02:03:08.834Z,100.00
2018-12-18T02:05:38.805Z,100.00
2018-12-18T02:08:08.993Z,100.00
2018-12-18T02:10:39.999Z,100.00
2018-12-18T02:13:10.680Z,100.00
2018-12-18T02:15:41.034Z,100.00
2018-12-18T02:18:11.204Z,100.00
2018-12-18T02:20:42.070Z,100.00
2018-12-18T02:23:12.041Z,100.00
2018-12-18T02:25:42.368Z,100.00
2018-12-18T02:28:12.618Z,100.00
2018-12-18T02:30:42.914Z,100.00
2018-12-18T02:33:13.182Z,100.00
2018-12-18T02:35:43.488Z,100.00
2018-12-18T02:38:13.827Z,100.00
2018-12-18T02:40:44.098Z,100.00
2018-12-18T02:43:14.147Z,100.00
2018-12-18T02:45:44.253Z,100.00
2018-12-18T02:48:14.601Z,100.00
2018-12-18T02:50:44.733Z,100.00
2018-12-18T02:53:14.863Z,100.00
2018-12-18T02:55:44.959Z,100.00
2018-12-18T02:58:15.397Z,100.00
2018-12-18T03:00:45.552Z,100.00
2018-12-18T03:03:16.027Z,100.00
2018-12-18T03:05:46.136Z,100.00
2018-12-18T03:08:16.640Z,100.00
2018-12-18T03:10:46.707Z,100.00
2018-12-18T03:13:16.864Z,100.00
2018-12-18T03:15:48.693Z,100.00
2018-12-18T03:18:18.879Z,100.00
2018-12-18T03:20:48.988Z,100.00
2018-12-18T03:23:18.887Z,100.00
2018-12-18T03:25:49.436Z,100.00
2018-12-18T03:28:19.677Z,100.00
2018-12-18T03:30:50.707Z,100.00
2018-12-18T03:33:20.846Z,100.00
2018-12-18T03:35:51.657Z,100.00
2018-12-18T03:38:21.570Z,100.00
2018-12-18T03:40:52.935Z,100.00
2018-12-18T03:43:22.987Z,100.00
2018-12-18T03:45:54.024Z,100.00
2018-12-18T03:48:24.401Z,100.00
2018-12-18T03:50:54.630Z,100.00
2018-12-18T03:53:24.760Z,100.00
2018-12-18T03:55:55.021Z,100.00
2018-12-18T03:58:25.115Z,100.00
2018-12-18T04:00:55.464Z,100.00
2018-12-18T04:03:25.817Z,100.00
2018-12-18T04:05:55.845Z,100.00
2018-12-18T04:08:26.109Z,100.00
2018-12-18T04:10:55.938Z,100.00
2018-12-18T04:13:26.683Z,100.00
2018-12-18T04:15:56.871Z,100.00
2018-12-18T04:18:27.399Z,100.00
2018-12-18T04:20:58.241Z,100.00
2018-12-18T04:23:28.335Z,100.00
2018-12-18T04:25:58.637Z,100.00
2018-12-18T04:28:29.477Z,100.00
2018-12-18T04:30:59.824Z,100.00
2018-12-18T04:33:31.361Z,100.00
2018-12-18T04:36:01.548Z,100.00
2018-12-18T04:38:31.778Z,100.00
2018-12-18T04:41:02.059Z,100.00
2018-12-18T04:43:32.248Z,100.00
2018-12-18T04:46:03.350Z,100.00
2018-12-18T04:48:33.471Z,100.00
2018-12-18T04:51:03.988Z,100.00
2018-12-18T04:53:36.046Z,100.00
2018-12-18T04:56:06.050Z,100.00
2018-12-18T04:58:36.172Z,100.00
2018-12-18T05:01:06.562Z,100.00
2018-12-18T05:03:36.964Z,100.00
2018-12-18T05:06:07.076Z,100.00
2018-12-18T05:08:37.339Z,100.00
2018-12-18T05:11:07.583Z,100.00
2018-12-18T05:13:37.927Z,100.00
2018-12-18T05:16:08.241Z,100.00
2018-12-18T05:18:38.177Z,100.00
2018-12-18T05:21:08.345Z,100.00
2018-12-18T05:23:38.817Z,100.00
2018-12-18T05:26:08.865Z,100.00
2018-12-18T05:28:38.992Z,100.00
2018-12-18T05:31:09.156Z,100.00
2018-12-18T05:33:40.662Z,100.00
2018-12-18T05:36:11.671Z,100.00
2018-12-18T05:38:41.659Z,100.00
2018-12-18T05:41:12.099Z,100.00
2018-12-18T05:43:42.554Z,100.00
2018-12-18T05:46:13.646Z,100.00
2018-12-18T05:48:43.891Z,100.00
2018-12-18T05:51:14.011Z,100.00
2018-12-18T05:53:44.532Z,100.00
2018-12-18T05:56:14.731Z,100.00
2018-12-18T05:58:44.798Z,100.00
2018-12-18T06:01:16.271Z,100.00
2018-12-18T06:03:46.469Z,100.00
2018-12-18T06:06:16.984Z,100.00
2018-12-18T06:08:47.301Z,100.00
2018-12-18T06:11:18.013Z,100.00
2018-12-18T06:13:48.365Z,100.00
2018-12-18T06:16:18.493Z,100.00
2018-12-18T06:18:49.499Z,100.00
2018-12-18T06:21:20.674Z,99.77
2018-12-18T06:23:51.108Z,100.00
2018-12-18T06:26:21.419Z,100.00
2018-12-18T06:28:51.772Z,100.00
2018-12-18T06:31:22.033Z,100.00
2018-12-18T06:33:52.120Z,100.00
2018-12-18T06:36:23.062Z,99.98
2018-12-18T06:38:53.144Z,100.00
2018-12-18T06:41:22.953Z,99.46
2018-12-18T06:43:53.079Z,99.59
2018-12-18T06:46:23.226Z,99.80
2018-12-18T06:48:53.467Z,99.59
2018-12-18T06:51:23.558Z,99.57
2018-12-18T06:53:54.236Z,100.00
2018-12-18T06:56:24.418Z,99.95
2018-12-18T06:58:54.632Z,99.55
2018-12-18T07:01:24.591Z,100.00
2018-12-18T07:03:56.563Z,99.76
2018-12-18T07:06:26.713Z,98.85
2018-12-18T07:08:56.418Z,99.59
2018-12-18T07:11:27.657Z,99.01
2018-12-18T07:13:58.670Z,99.27
2018-12-18T07:16:28.731Z,99.00
2018-12-18T07:18:58.878Z,99.27
2018-12-18T07:21:28.817Z,99.51
2018-12-18T07:23:58.732Z,99.70
2018-12-18T07:26:28.907Z,98.96
2018-12-18T07:28:59.161Z,99.25
2018-12-18T07:31:29.400Z,99.20
2018-12-18T07:33:59.611Z,99.29
2018-12-18T07:36:30.015Z,100.00
2018-12-18T07:39:00.041Z,99.68
2018-12-18T07:41:30.920Z,98.99
2018-12-18T07:44:01.059Z,98.79
2018-12-18T07:46:31.313Z,99.08
2018-12-18T07:49:01.649Z,98.98
2018-12-18T07:51:31.774Z,98.48
2018-12-18T07:54:01.720Z,98.53
2018-12-18T07:56:31.880Z,98.81
2018-12-18T07:59:01.895Z,98.89
2018-12-18T08:01:32.473Z,99.41
2018-12-18T08:04:02.295Z,98.57
2018-12-18T08:06:33.363Z,99.06
2018-12-18T08:09:03.777Z,99.22
2018-12-18T08:11:33.933Z,99.35
2018-12-18T08:14:03.988Z,99.29
2018-12-18T08:16:34.118Z,98.71
2018-12-18T08:19:04.291Z,99.60
2018-12-18T08:21:34.555Z,98.92
2018-12-18T08:24:04.653Z,98.30
2018-12-18T08:26:35.559Z,98.17
2018-12-18T08:29:06.529Z,97.98
2018-12-18T08:31:36.678Z,97.93
2018-12-18T08:34:06.853Z,97.04
2018-12-18T08:36:36.921Z,97.79
2018-12-18T08:39:09.812Z,96.91
2018-12-18T08:41:39.923Z,97.32
2018-12-18T08:44:09.941Z,96.75
2018-12-18T08:46:41.083Z,96.98
2018-12-18T08:49:11.118Z,96.15
2018-12-18T08:51:41.368Z,95.52
2018-12-18T08:54:12.366Z,96.58
2018-12-18T08:56:42.657Z,95.95
2018-12-18T08:59:13.438Z,95.92
2018-12-18T09:01:43.770Z,97.11
2018-12-18T09:04:13.874Z,96.74
2018-12-18T09:06:44.061Z,96.83
2018-12-18T09:09:14.132Z,98.03
2018-12-18T09:11:44.388Z,99.24
2018-12-18T09:14:15.247Z,100.00
2018-12-18T09:16:50.205Z,100.00
2018-12-18T09:19:20.303Z,100.00
2018-12-18T09:21:50.664Z,100.00
2018-12-18T09:24:20.994Z,100.00
2018-12-18T09:26:51.313Z,100.00
2018-12-18T09:29:21.555Z,100.00
2018-12-18T09:31:51.840Z,100.00
2018-12-18T09:34:21.773Z,100.00
2018-12-18T09:36:51.799Z,100.00
2018-12-18T09:39:26.938Z,100.00
2018-12-18T09:43:03.824Z,100.00
2018-12-18T09:45:33.797Z,100.00
2018-12-18T09:48:03.838Z,100.00
2018-12-18T09:50:34.242Z,100.00
2018-12-18T09:53:04.407Z,100.00
2018-12-18T09:55:34.598Z,100.00
2018-12-18T09:58:08.827Z,100.00
2018-12-18T10:00:39.032Z,100.00
2018-12-18T10:03:09.571Z,100.00
2018-12-18T10:05:39.461Z,100.00
2018-12-18T10:08:09.580Z,100.00
2018-12-18T10:10:39.730Z,100.00
2018-12-18T10:13:09.887Z,100.00
2018-12-18T10:15:39.968Z,100.00
2018-12-18T10:18:10.453Z,100.00
2018-12-18T10:20:40.422Z,100.00
2018-12-18T10:23:10.513Z,100.00
2018-12-18T10:25:40.607Z,100.00
2018-12-18T10:28:11.035Z,100.00
2018-12-18T10:30:42.326Z,100.00
2018-12-18T10:33:13.599Z,100.00
2018-12-18T10:35:43.631Z,100.00
2018-12-18T10:38:14.470Z,100.00
2018-12-18T10:40:44.646Z,100.00
2018-12-18T10:43:14.790Z,100.00
2018-12-18T10:45:45.151Z,100.00
2018-12-18T10:48:15.244Z,99.90
2018-12-18T10:50:45.633Z,99.97
2018-12-18T10:53:15.478Z,99.69
2018-12-18T10:55:45.450Z,99.90
2018-12-18T10:58:16.391Z,100.00
2018-12-18T11:00:51.395Z,99.92
2018-12-18T11:03:21.998Z,99.77
2018-12-18T11:05:52.214Z,100.00
2018-12-18T11:08:22.395Z,100.00
2018-12-18T11:10:52.724Z,100.00
2018-12-18T11:13:22.852Z,99.80
2018-12-18T11:15:53.576Z,100.00
2018-12-18T11:18:23.947Z,99.45
2018-12-18T11:20:53.960Z,99.26
2018-12-18T11:23:24.747Z,99.03
2018-12-18T11:25:55.423Z,99.03
2018-12-18T11:28:25.818Z,98.85
2018-12-18T11:30:56.098Z,97.64
2018-12-18T11:33:26.302Z,97.66
2018-12-18T11:35:56.284Z,97.47
2018-12-18T11:38:26.486Z,98.66
2018-12-18T11:40:58.128Z,97.66
2018-12-18T11:43:28.317Z,97.68
2018-12-18T11:45:58.413Z,97.29
2018-12-18T11:48:29.665Z,97.33
2018-12-18T11:50:59.991Z,97.82
2018-12-18T11:53:30.097Z,97.34
2018-12-18T11:56:00.405Z,98.47
2018-12-18T11:58:30.958Z,98.63
2018-12-18T12:01:01.549Z,97.90
2018-12-18T12:03:31.931Z,97.95
2018-12-18T12:06:02.218Z,98.22
2018-12-18T12:08:32.424Z,96.94
2018-12-18T12:11:02.757Z,97.44
2018-12-18T12:13:33.033Z,97.08
2018-12-18T12:16:03.231Z,97.33
2018-12-18T12:18:33.221Z,96.98
2018-12-18T12:21:03.450Z,97.17
2018-12-18T12:23:33.599Z,97.33
2018-12-18T12:26:09.699Z,96.65
2018-12-18T12:28:40.720Z,97.03
2018-12-18T12:31:10.758Z,97.62
2018-12-18T12:33:40.829Z,97.23
2018-12-18T12:36:10.835Z,96.99
2018-12-18T12:38:41.279Z,96.48
2018-12-18T12:41:11.726Z,97.37
2018-12-18T12:43:42.676Z,96.63
2018-12-18T12:46:13.189Z,97.40
2018-12-18T12:48:49.848Z,98.27
2018-12-18T12:51:21.241Z,97.69
2018-12-18T12:53:51.547Z,97.36
2018-12-18T12:56:21.737Z,97.46
2018-12-18T12:58:51.772Z,97.90
2018-12-18T13:01:21.785Z,97.58
2018-12-18T13:03:51.791Z,97.85
2018-12-18T13:06:21.945Z,98.81
2018-12-18T13:08:52.157Z,99.23
2018-12-18T13:11:22.155Z,98.85
2018-12-18T13:13:52.386Z,98.82
2018-12-18T13:16:23.394Z,99.35
2018-12-18T13:18:53.451Z,100.00
2018-12-18T13:21:23.735Z,100.00
2018-12-18T13:23:53.802Z,100.00
2018-12-18T13:26:24.073Z,100.00
2018-12-18T13:28:55.470Z,100.00
2018-12-18T13:31:26.778Z,99.90
2018-12-18T13:33:56.648Z,100.00
2018-12-18T13:36:27.957Z,100.00
2018-12-18T13:38:58.370Z,100.00
2018-12-18T13:41:28.293Z,100.00
2018-12-18T13:43:58.731Z,100.00
2018-12-18T13:46:28.855Z,100.00
2018-12-18T13:48:59.024Z,99.91
2018-12-18T13:51:29.080Z,99.98
2018-12-18T13:53:59.347Z,99.76
2018-12-18T13:56:29.464Z,99.46
2018-12-18T13:59:00.406Z,99.30
2018-12-18T14:01:30.716Z,99.52
2018-12-18T14:04:00.841Z,99.57
2018-12-18T14:06:30.737Z,99.27
2018-12-18T14:09:00.898Z,99.25
2018-12-18T14:11:31.804Z,98.71
2018-12-18T14:14:02.114Z,99.45
2018-12-18T14:16:32.267Z,100.00
2018-12-18T14:19:03.707Z,99.89
2018-12-18T14:21:33.633Z,100.00
2018-12-18T14:24:04.771Z,100.00
2018-12-18T14:26:35.071Z,100.00
2018-12-18T14:29:08.640Z,100.00
2018-12-18T14:31:39.416Z,100.00
2018-12-18T14:34:09.459Z,100.00
2018-12-18T14:36:41.121Z,100.00
2018-12-18T14:39:11.357Z,100.00
2018-12-18T14:41:41.601Z,100.00
2018-12-18T14:44:11.871Z,100.00
2018-12-18T14:46:42.412Z,100.00
2018-12-18T14:49:12.482Z,100.00
2018-12-18T14:51:42.934Z,100.00
2018-12-18T14:54:13.479Z,100.00
2018-12-18T14:56:43.595Z,100.00
2018-12-18T14:59:13.902Z,100.00
2018-12-18T15:01:45.009Z,100.00
2018-12-18T15:04:15.644Z,100.00
2018-12-18T15:06:46.198Z,100.00
2018-12-18T15:09:16.786Z,100.00
2018-12-18T15:11:46.972Z,100.00
2018-12-18T15:14:18.330Z,100.00
2018-12-18T15:16:50.089Z,100.00
2018-12-18T15:19:20.370Z,100.00
2018-12-18T15:21:51.438Z,100.00
2018-12-18T15:24:23.741Z,100.00
2018-12-18T15:26:54.202Z,99.77
2018-12-18T15:29:25.468Z,99.06
2018-12-18T15:31:55.593Z,99.32
2018-12-18T15:34:25.741Z,99.35
2018-12-18T15:36:56.019Z,99.48
2018-12-18T15:39:26.167Z,99.24
2018-12-18T15:41:57.255Z,98.97
2018-12-18T15:44:27.520Z,99.32
2018-12-18T15:46:58.560Z,99.11
2018-12-18T15:49:29.546Z,99.36
2018-12-18T15:51:59.721Z,99.01
2018-12-18T15:54:31.718Z,98.73
2018-12-18T15:57:03.467Z,97.81
2018-12-18T15:59:33.603Z,97.53
2018-12-18T16:02:03.723Z,97.71
2018-12-18T16:04:34.643Z,97.79
2018-12-18T16:07:06.628Z,97.53
2018-12-18T16:09:36.733Z,97.28
2018-12-18T16:12:07.232Z,96.76
2018-12-18T16:14:44.317Z,97.07
2018-12-18T16:17:37.683Z,97.03
2018-12-18T16:20:08.231Z,97.68
2018-12-18T16:22:39.431Z,97.49
2018-12-18T16:25:11.088Z,98.03
2018-12-18T16:27:42.080Z,97.72
2018-12-18T16:30:20.680Z,97.82
2018-12-18T16:32:52.216Z,97.57
2018-12-18T16:35:32.142Z,97.63
2018-12-18T16:38:03.354Z,96.82
2018-12-18T16:40:33.474Z,97.43
2018-12-18T16:43:04.267Z,96.98
2018-12-18T16:45:34.721Z,96.46
2018-12-18T16:48:04.875Z,96.50
2018-12-18T16:50:34.987Z,96.66
2018-12-18T16:53:05.687Z,96.37
2018-12-18T16:55:36.177Z,96.63
2018-12-18T16:58:06.142Z,96.00
2018-12-18T17:00:36.468Z,96.14
2018-12-18T17:03:08.093Z,96.13
2018-12-18T17:05:39.697Z,95.83
2018-12-18T17:08:09.777Z,95.84
2018-12-18T17:10:43.498Z,95.50
2018-12-18T17:13:15.235Z,95.64
2018-12-18T17:15:48.120Z,95.46
2018-12-18T17:18:18.544Z,95.02
2018-12-18T17:20:49.845Z,94.68
2018-12-18T17:23:20.098Z,94.98
2018-12-18T17:25:50.606Z,94.39
2018-12-18T17:28:21.193Z,94.40
2018-12-18T17:30:51.285Z,94.29
2018-12-18T17:33:21.554Z,94.68
2018-12-18T17:35:53.036Z,94.56
2018-12-18T17:38:25.651Z,94.92
2018-12-18T17:40:57.199Z,94.79
2018-12-18T17:43:28.200Z,94.55
2018-12-18T17:45:58.441Z,94.60
2018-12-18T17:48:28.774Z,94.76
2018-12-18T17:50:59.047Z,95.17
2018-12-18T17:53:30.430Z,95.21
2018-12-18T17:56:01.381Z,95.76
2018-12-18T17:58:31.607Z,95.87
2018-12-18T18:01:01.830Z,96.08
2018-12-18T18:03:32.026Z,96.02
2018-12-18T18:06:02.627Z,96.08
2018-12-18T18:08:33.636Z,95.69
2018-12-18T18:11:04.221Z,95.97
2018-12-18T18:13:35.039Z,96.32
2018-12-18T18:16:05.314Z,96.39
2018-12-18T18:18:35.528Z,96.63
2018-12-18T18:21:06.043Z,96.00
2018-12-18T18:23:37.367Z,96.21
2018-12-18T18:26:08.348Z,96.60
2018-12-18T18:28:38.715Z,96.36
2018-12-18T18:31:10.005Z,96.58
2018-12-18T18:33:40.544Z,97.19
2018-12-18T18:36:10.981Z,96.79
2018-12-18T18:38:41.254Z,96.91
2018-12-18T18:41:12.692Z,97.32
2018-12-18T18:43:45.021Z,97.69
2018-12-18T18:46:15.867Z,97.30
2018-12-18T18:48:47.393Z,97.27
2018-12-18T18:51:18.119Z,97.70
2018-12-18T18:53:49.484Z,97.88
2018-12-18T18:56:21.024Z,98.57
2018-12-18T18:58:52.231Z,99.16
2018-12-18T19:01:23.279Z,98.85
2018-12-18T19:03:53.630Z,98.90
2018-12-18T19:06:24.211Z,98.02
2018-12-18T19:08:54.506Z,98.08
2018-12-18T19:11:24.862Z,97.95
2018-12-18T19:13:55.450Z,96.65
2018-12-18T19:16:25.797Z,97.43
2018-12-18T19:18:56.270Z,97.23
2018-12-18T19:21:27.462Z,96.85
2018-12-18T19:23:58.029Z,96.67
2018-12-18T19:26:28.357Z,96.13
2018-12-18T19:28:59.495Z,96.97
2018-12-18T19:31:30.280Z,96.88
2018-12-18T19:34:00.711Z,96.34
2018-12-18T19:36:31.066Z,96.29
2018-12-18T19:39:01.396Z,96.52
2018-12-18T19:41:36.444Z,96.39
2018-12-18T19:44:06.601Z,96.40
2018-12-18T19:46:36.725Z,96.29
2018-12-18T19:49:07.253Z,95.81
2018-12-18T19:51:37.489Z,95.78
2018-12-18T19:54:08.600Z,95.52
2018-12-18T19:56:39.117Z,96.13
2018-12-18T19:59:10.898Z,95.77
2018-12-18T20:01:43.509Z,96.45
2018-12-18T20:04:13.734Z,96.03
2018-12-18T20:06:44.148Z,95.04
2018-12-18T20:09:15.383Z,94.04
2018-12-18T20:11:46.564Z,94.00
2018-12-18T20:14:16.958Z,93.85
2018-12-18T20:16:47.325Z,94.13
2018-12-18T20:19:19.861Z,94.44
2018-12-18T20:21:50.994Z,94.84
2018-12-18T20:24:22.229Z,95.05
2018-12-18T20:26:52.367Z,94.15
2018-12-18T20:29:22.660Z,93.69
2018-12-18T20:31:53.019Z,92.40
2018-12-18T20:34:23.090Z,92.01
2018-12-18T20:36:53.492Z,92.25
2018-12-18T20:39:25.559Z,91.60
2018-12-18T20:41:56.392Z,91.76
2018-12-18T20:44:26.574Z,91.56
2018-12-18T20:46:58.275Z,92.21
2018-12-18T20:49:28.726Z,91.85
2018-12-18T20:52:00.459Z,91.58
2018-12-18T20:54:30.769Z,91.76
2018-12-18T20:57:01.274Z,92.26
2018-12-18T20:59:33.211Z,92.59
2018-12-18T21:02:04.409Z,93.82
2018-12-18T21:04:37.957Z,93.15
2018-12-18T21:07:11.342Z,93.21
2018-12-18T21:09:41.615Z,93.65
2018-12-18T21:12:11.911Z,93.56
2018-12-18T21:14:42.572Z,93.97
2018-12-18T21:17:12.901Z,93.91
2018-12-18T21:19:44.316Z,93.55
2018-12-18T21:22:14.548Z,93.95
2018-12-18T21:24:44.684Z,94.27
2018-12-18T21:27:15.301Z,93.95
2018-12-18T21:29:45.927Z,94.26
2018-12-18T21:32:17.197Z,94.70
2018-12-18T21:34:48.651Z,94.73
2018-12-18T21:37:19.032Z,95.07
2018-12-18T21:39:49.238Z,95.92
2018-12-18T21:42:19.457Z,95.99
2018-12-18T21:44:50.025Z,96.26
2018-12-18T21:47:20.454Z,96.22
2018-12-18T21:49:50.816Z,96.64
2018-12-18T21:52:21.005Z,96.30
2018-12-18T21:54:52.083Z,96.18
2018-12-18T21:57:22.269Z,96.03
2018-12-18T21:59:52.553Z,96.35
2018-12-18T22:02:22.563Z,96.61
2018-12-18T22:04:53.979Z,96.48
2018-12-18T22:07:24.102Z,96.63
2018-12-18T22:09:54.096Z,97.13
2018-12-18T22:12:24.431Z,96.82
2018-12-18T22:14:54.859Z,96.82
2018-12-18T22:17:24.919Z,96.89
2018-12-18T22:19:55.103Z,96.74
2018-12-18T22:22:25.342Z,96.75
2018-12-18T22:24:56.559Z,96.98
2018-12-18T22:27:28.232Z,97.22
2018-12-18T22:29:59.159Z,97.15
2018-12-18T22:32:29.535Z,97.59
2018-12-18T22:34:59.530Z,96.95
2018-12-18T22:37:29.864Z,96.44
2018-12-18T22:40:00.232Z,96.23
2018-12-18T22:42:30.322Z,96.82
2018-12-18T22:45:00.302Z,97.09
2018-12-18T22:47:31.035Z,96.34
2018-12-18T22:50:01.382Z,96.55
2018-12-18T22:52:31.618Z,96.78
2018-12-18T22:55:02.689Z,96.77
2018-12-18T22:57:33.134Z,96.80
2018-12-18T23:00:05.703Z,97.03
2018-12-18T23:02:35.960Z,97.43
2018-12-18T23:05:08.463Z,97.32
2018-12-18T23:07:39.100Z,97.13
2018-12-18T23:10:10.424Z,97.21
2018-12-18T23:12:40.681Z,97.22
2018-12-18T23:15:10.960Z,97.16
2018-12-18T23:17:41.241Z,97.20
2018-12-18T23:20:11.580Z,98.05
2018-12-18T23:22:41.811Z,98.22
2018-12-18T23:25:11.939Z,97.89
2018-12-18T23:27:42.094Z,97.43
2018-12-18T23:30:12.294Z,97.04
2018-12-18T23:32:42.628Z,97.03
2018-12-18T23:35:13.754Z,96.16
2018-12-18T23:37:43.924Z,95.57
2018-12-18T23:40:13.989Z,96.33
2018-12-18T23:42:44.318Z,95.92
2018-12-18T23:45:15.104Z,95.84
2018-12-18T23:47:46.205Z,95.49
2018-12-18T23:50:16.338Z,94.71
2018-12-18T23:52:47.343Z,94.05
2018-12-18T23:55:17.883Z,92.94
2018-12-18T23:57:48.817Z,92.36
